createdAt,value
2018-02-08T00:00:50.619Z,0.00
2018-02-08T00:01:50.436Z,0.00
2018-02-08T00:02:50.532Z,0.00
2018-02-08T00:03:50.379Z,0.00
2018-02-08T00:04:50.442Z,0.00
2018-02-08T00:05:50.305Z,0.00
2018-02-08T00:06:50.456Z,0.00
2018-02-08T00:07:50.239Z,0.00
2018-02-08T00:08:50.368Z,0.00
2018-02-08T00:09:50.172Z,0.00
2018-02-08T00:10:50.281Z,0.00
2018-02-08T00:11:50.106Z,0.00
2018-02-08T00:12:50.191Z,0.00
2018-02-08T00:13:50.040Z,0.00
2018-02-08T00:14:50.205Z,0.00
2018-02-08T00:15:49.974Z,0.00
2018-02-08T00:16:50.115Z,0.00
2018-02-08T00:17:49.910Z,0.00
2018-02-08T00:18:50.027Z,0.00
2018-02-08T00:19:50.714Z,0.00
2018-02-08T00:20:49.939Z,0.00
2018-02-08T00:21:49.776Z,0.00
2018-02-08T00:22:49.982Z,0.00
2018-02-08T00:23:49.711Z,0.00
2018-02-08T00:24:50.713Z,0.00
2018-02-08T00:25:49.646Z,0.00
2018-02-08T00:26:49.777Z,0.00
2018-02-08T00:27:49.582Z,0.00
2018-02-08T00:28:49.688Z,0.00
2018-02-08T00:29:49.511Z,0.00
2018-02-08T00:30:49.596Z,0.00
2018-02-08T00:31:49.443Z,0.00
2018-02-08T00:32:49.613Z,0.00
2018-02-08T00:33:49.380Z,0.00
2018-02-08T00:34:49.524Z,0.00
2018-02-08T00:35:49.310Z,0.00
2018-02-08T00:36:49.332Z,0.00
2018-02-08T00:37:49.247Z,0.00
2018-02-08T00:38:49.243Z,0.00
2018-02-08T00:39:49.177Z,0.00
2018-02-08T00:40:49.257Z,0.00
2018-02-08T00:41:49.111Z,0.00
2018-02-08T00:42:49.172Z,0.00
2018-02-08T00:43:49.048Z,0.00
2018-02-08T00:44:49.080Z,0.00
2018-02-08T00:45:48.979Z,0.00
2018-02-08T00:46:48.993Z,0.00
2018-02-08T00:47:48.911Z,0.00
2018-02-08T00:48:49.006Z,0.00
2018-02-08T00:49:48.847Z,0.00
2018-02-08T00:50:48.921Z,0.00
2018-02-08T00:51:48.782Z,0.00
2018-02-08T00:52:48.830Z,0.00
2018-02-08T00:53:48.715Z,0.00
2018-02-08T00:54:48.758Z,0.00
2018-02-08T00:55:48.648Z,0.00
2018-02-08T00:56:48.652Z,0.00
2018-02-08T00:57:48.579Z,0.00
2018-02-08T00:58:48.665Z,0.00
2018-02-08T00:59:48.513Z,0.00
2018-02-08T01:00:48.583Z,0.00
2018-02-08T01:01:48.449Z,0.00
2018-02-08T01:02:48.494Z,0.00
2018-02-08T01:03:48.379Z,0.00
2018-02-08T01:04:48.401Z,0.00
2018-02-08T01:05:48.316Z,0.00
2018-02-08T01:06:48.417Z,0.00
2018-02-08T01:07:48.248Z,0.00
2018-02-08T01:08:48.326Z,0.00
2018-02-08T01:09:48.184Z,0.00
2018-02-08T01:10:48.241Z,0.00
2018-02-08T01:11:48.113Z,0.00
2018-02-08T01:12:48.149Z,0.00
2018-02-08T01:13:48.052Z,0.00
2018-02-08T01:14:48.061Z,0.00
2018-02-08T01:15:47.981Z,0.00
2018-02-08T01:16:48.074Z,0.00
2018-02-08T01:17:47.913Z,0.00
2018-02-08T01:18:47.985Z,0.00
2018-02-08T01:19:47.849Z,0.00
2018-02-08T01:20:47.898Z,0.00
2018-02-08T01:21:47.778Z,0.00
2018-02-08T01:22:47.807Z,0.00
2018-02-08T01:23:47.713Z,0.00
2018-02-08T01:24:47.822Z,0.00
2018-02-08T01:25:47.647Z,0.00
2018-02-08T01:26:47.737Z,0.00
2018-02-08T01:27:47.580Z,0.00
2018-02-08T01:28:47.646Z,0.00
2018-02-08T01:29:47.515Z,0.00
2018-02-08T01:30:47.557Z,0.00
2018-02-08T01:31:47.446Z,0.00
2018-02-08T01:32:47.573Z,0.00
2018-02-08T01:33:47.381Z,0.00
2018-02-08T01:34:47.482Z,0.00
2018-02-08T01:35:47.310Z,0.00
2018-02-08T01:36:47.394Z,0.00
2018-02-08T01:37:47.246Z,0.00
2018-02-08T01:38:47.306Z,0.00
2018-02-08T01:39:47.176Z,0.00
2018-02-08T01:40:47.216Z,0.00
2018-02-08T01:41:47.112Z,0.00
2018-02-08T01:42:47.231Z,0.00
2018-02-08T01:43:47.044Z,0.00
2018-02-08T01:44:47.144Z,0.00
2018-02-08T01:45:46.975Z,0.00
2018-02-08T01:46:47.055Z,0.00
2018-02-08T01:47:46.907Z,0.00
2018-02-08T01:48:46.965Z,0.00
2018-02-08T01:49:46.843Z,0.00
2018-02-08T01:50:46.877Z,0.00
2018-02-08T01:51:46.772Z,0.00
2018-02-08T01:52:46.891Z,0.00
2018-02-08T01:53:46.707Z,0.00
2018-02-08T01:54:46.802Z,0.00
2018-02-08T01:55:46.641Z,0.00
2018-02-08T01:56:46.713Z,0.00
2018-02-08T01:57:46.575Z,0.00
2018-02-08T01:58:46.626Z,0.00
2018-02-08T01:59:46.506Z,0.00
2018-02-08T02:00:46.640Z,0.00
2018-02-08T02:01:46.437Z,0.00
2018-02-08T02:02:46.549Z,0.00
2018-02-08T02:03:46.372Z,0.00
2018-02-08T02:04:46.461Z,0.00
2018-02-08T02:05:46.305Z,0.00
2018-02-08T02:06:46.373Z,0.00
2018-02-08T02:07:46.234Z,0.00
2018-02-08T02:08:46.389Z,0.00
2018-02-08T02:09:46.172Z,0.00
2018-02-08T02:10:46.302Z,0.00
2018-02-08T02:11:46.101Z,0.00
2018-02-08T02:12:46.213Z,0.00
2018-02-08T02:13:46.037Z,0.00
2018-02-08T02:14:46.123Z,0.00
2018-02-08T02:15:45.966Z,0.00
2018-02-08T02:16:46.034Z,0.00
2018-02-08T02:17:45.898Z,0.00
2018-02-08T02:18:46.048Z,0.00
2018-02-08T02:19:45.833Z,0.00
2018-02-08T02:20:45.957Z,0.00
2018-02-08T02:21:45.769Z,0.00
2018-02-08T02:22:45.869Z,0.00
2018-02-08T02:23:45.698Z,0.00
2018-02-08T02:24:45.784Z,0.00
2018-02-08T02:25:45.633Z,0.00
2018-02-08T02:26:45.692Z,0.00
2018-02-08T02:27:45.560Z,0.00
2018-02-08T02:28:45.706Z,0.00
2018-02-08T02:29:45.492Z,0.00
2018-02-08T02:30:45.618Z,0.00
2018-02-08T02:31:45.427Z,0.00
2018-02-08T02:32:45.531Z,0.00
2018-02-08T02:33:45.372Z,0.00
2018-02-08T02:34:45.443Z,0.00
2018-02-08T02:35:45.292Z,0.00
2018-02-08T02:36:45.455Z,0.00
2018-02-08T02:37:45.224Z,0.00
2018-02-08T02:38:45.370Z,0.00
2018-02-08T02:39:45.155Z,0.00
2018-02-08T02:40:45.279Z,0.00
2018-02-08T02:41:45.086Z,0.00
2018-02-08T02:42:45.188Z,0.00
2018-02-08T02:43:45.021Z,0.00
2018-02-08T02:44:45.102Z,0.00
2018-02-08T02:45:44.953Z,0.00
2018-02-08T02:46:45.116Z,0.00
2018-02-08T02:47:44.893Z,0.00
2018-02-08T02:48:45.028Z,0.00
2018-02-08T02:49:44.815Z,0.00
2018-02-08T02:50:44.938Z,0.00
2018-02-08T02:51:44.751Z,0.00
2018-02-08T02:52:44.850Z,0.00
2018-02-08T02:53:44.684Z,0.00
2018-02-08T02:54:44.865Z,0.00
2018-02-08T02:55:44.615Z,0.00
2018-02-08T02:56:44.776Z,0.00
2018-02-08T02:57:44.550Z,0.00
2018-02-08T02:58:44.688Z,0.00
2018-02-08T02:59:44.478Z,0.00
2018-02-08T03:00:44.601Z,0.00
2018-02-08T03:01:44.410Z,0.00
2018-02-08T03:02:44.512Z,0.00
2018-02-08T03:03:44.344Z,0.00
2018-02-08T03:04:44.421Z,0.00
2018-02-08T03:05:44.275Z,0.00
2018-02-08T03:06:44.332Z,0.00
2018-02-08T03:07:44.206Z,0.00
2018-02-08T03:08:44.247Z,0.00
2018-02-08T03:09:44.140Z,0.00
2018-02-08T03:10:44.153Z,0.00
2018-02-08T03:11:44.070Z,0.00
2018-02-08T03:12:44.069Z,0.00
2018-02-08T03:13:44.003Z,0.00
2018-02-08T03:14:44.079Z,0.00
2018-02-08T03:15:43.936Z,0.00
2018-02-08T03:16:43.994Z,0.00
2018-02-08T03:17:43.867Z,0.00
2018-02-08T03:18:43.904Z,0.00
2018-02-08T03:19:43.799Z,0.00
2018-02-08T03:20:43.815Z,0.00
2018-02-08T03:21:43.731Z,0.00
2018-02-08T03:22:43.830Z,0.00
2018-02-08T03:23:43.667Z,0.00
2018-02-08T03:24:43.739Z,0.00
2018-02-08T03:25:43.595Z,0.00
2018-02-08T03:26:43.651Z,0.00
2018-02-08T03:27:43.525Z,0.00
2018-02-08T03:28:43.564Z,0.00
2018-02-08T03:29:43.458Z,0.00
2018-02-08T03:30:43.477Z,0.00
2018-02-08T03:31:43.391Z,0.00
2018-02-08T03:32:43.489Z,0.00
2018-02-08T03:33:43.322Z,0.00
2018-02-08T03:34:43.403Z,0.00
2018-02-08T03:35:43.255Z,0.00
2018-02-08T03:36:43.313Z,0.00
2018-02-08T03:37:43.185Z,0.00
2018-02-08T03:38:43.224Z,0.00
2018-02-08T03:39:43.117Z,0.00
2018-02-08T03:40:43.138Z,0.00
2018-02-08T03:41:43.050Z,0.00
2018-02-08T03:42:43.151Z,0.00
2018-02-08T03:43:42.984Z,0.00
2018-02-08T03:44:43.060Z,0.00
2018-02-08T03:45:42.914Z,0.00
2018-02-08T03:46:42.972Z,0.00
2018-02-08T03:47:42.844Z,0.00
2018-02-08T03:48:42.886Z,0.00
2018-02-08T03:49:42.778Z,0.00
2018-02-08T03:50:42.793Z,0.00
2018-02-08T03:51:42.708Z,0.00
2018-02-08T03:52:42.808Z,0.00
2018-02-08T03:53:42.640Z,0.00
2018-02-08T03:54:42.721Z,0.00
2018-02-08T03:55:42.570Z,0.00
2018-02-08T03:56:42.632Z,0.00
2018-02-08T03:57:42.502Z,0.00
2018-02-08T03:58:42.544Z,0.00
2018-02-08T03:59:42.433Z,0.00
2018-02-08T04:00:42.557Z,0.00
2018-02-08T04:01:42.367Z,0.00
2018-02-08T04:02:42.471Z,0.00
2018-02-08T04:03:42.300Z,0.00
2018-02-08T04:04:42.382Z,0.00
2018-02-08T04:05:42.230Z,0.00
2018-02-08T04:06:42.298Z,0.00
2018-02-08T04:07:42.168Z,0.00
2018-02-08T04:08:42.207Z,0.00
2018-02-08T04:09:42.096Z,0.00
2018-02-08T04:10:42.218Z,0.00
2018-02-08T04:11:42.023Z,0.00
2018-02-08T04:12:42.130Z,0.00
2018-02-08T04:13:41.957Z,0.00
2018-02-08T04:14:42.040Z,0.00
2018-02-08T04:15:41.889Z,0.00
2018-02-08T04:16:41.954Z,0.00
2018-02-08T04:17:41.819Z,0.00
2018-02-08T04:18:41.866Z,0.00
2018-02-08T04:19:41.749Z,0.00
2018-02-08T04:20:41.878Z,0.00
2018-02-08T04:21:41.684Z,0.00
2018-02-08T04:22:41.788Z,0.00
2018-02-08T04:23:41.612Z,0.00
2018-02-08T04:24:41.700Z,0.00
2018-02-08T04:25:41.547Z,0.00
2018-02-08T04:26:41.613Z,0.00
2018-02-08T04:27:41.476Z,0.00
2018-02-08T04:28:41.521Z,0.00
2018-02-08T04:29:41.408Z,0.00
2018-02-08T04:30:41.540Z,0.00
2018-02-08T04:31:41.341Z,0.00
2018-02-08T04:32:41.450Z,0.00
2018-02-08T04:33:41.277Z,0.00
2018-02-08T04:34:41.360Z,0.00
2018-02-08T04:35:41.202Z,0.00
2018-02-08T04:36:41.272Z,0.00
2018-02-08T04:37:41.133Z,0.00
2018-02-08T04:38:41.183Z,0.00
2018-02-08T04:39:41.063Z,0.00
2018-02-08T04:40:41.196Z,0.00
2018-02-08T04:41:40.993Z,0.00
2018-02-08T04:42:41.108Z,0.00
2018-02-08T04:43:40.925Z,0.00
2018-02-08T04:44:41.021Z,0.00
2018-02-08T04:45:40.859Z,0.00
2018-02-08T04:46:40.930Z,0.00
2018-02-08T04:47:40.790Z,0.00
2018-02-08T04:48:40.945Z,0.00
2018-02-08T04:49:40.721Z,0.00
2018-02-08T04:50:40.857Z,0.00
2018-02-08T04:51:40.649Z,0.00
2018-02-08T04:52:40.768Z,0.00
2018-02-08T04:53:40.582Z,0.00
2018-02-08T04:54:40.681Z,0.00
2018-02-08T04:55:40.516Z,0.00
2018-02-08T04:56:40.591Z,0.00
2018-02-08T04:57:40.446Z,0.00
2018-02-08T04:58:40.606Z,0.00
2018-02-08T04:59:40.375Z,0.00
2018-02-08T05:00:40.516Z,0.00
2018-02-08T05:01:40.307Z,0.00
2018-02-08T05:02:40.429Z,0.00
2018-02-08T05:03:40.237Z,0.00
2018-02-08T05:04:40.338Z,0.00
2018-02-08T05:05:40.171Z,0.00
2018-02-08T05:06:40.250Z,0.00
2018-02-08T05:07:40.102Z,0.00
2018-02-08T05:08:40.266Z,0.00
2018-02-08T05:09:40.032Z,0.00
2018-02-08T05:10:40.176Z,0.00
2018-02-08T05:11:39.964Z,0.00
2018-02-08T05:12:40.088Z,0.00
2018-02-08T05:13:39.893Z,0.00
2018-02-08T05:14:39.999Z,0.00
2018-02-08T05:15:39.825Z,0.00
2018-02-08T05:16:39.913Z,0.00
2018-02-08T05:17:39.765Z,0.00
2018-02-08T05:18:39.925Z,0.00
2018-02-08T05:19:39.686Z,0.00
2018-02-08T05:20:39.836Z,0.00
2018-02-08T05:21:39.618Z,0.00
2018-02-08T05:22:39.754Z,0.00
2018-02-08T05:23:39.548Z,0.00
2018-02-08T05:24:39.658Z,0.00
2018-02-08T05:25:39.482Z,0.00
2018-02-08T05:26:39.569Z,0.00
2018-02-08T05:27:39.411Z,0.00
2018-02-08T05:28:39.582Z,0.00
2018-02-08T05:29:39.341Z,0.00
2018-02-08T05:30:39.496Z,0.00
2018-02-08T05:31:39.274Z,0.00
2018-02-08T05:32:39.307Z,0.00
2018-02-08T05:33:39.207Z,0.00
2018-02-08T05:34:39.218Z,0.00
2018-02-08T05:35:39.135Z,0.00
2018-02-08T05:36:39.117Z,0.00
2018-02-08T05:37:39.124Z,0.00
2018-02-08T05:38:39.031Z,0.00
2018-02-08T05:39:39.033Z,0.00
2018-02-08T05:40:38.963Z,0.00
2018-02-08T05:41:38.944Z,0.00
2018-02-08T05:42:38.909Z,0.00
2018-02-08T05:43:38.858Z,0.00
2018-02-08T05:44:38.864Z,0.00
2018-02-08T05:45:38.791Z,0.00
2018-02-08T05:46:38.770Z,0.00
2018-02-08T05:47:38.721Z,0.00
2018-02-08T05:48:38.787Z,0.00
2018-02-08T05:49:38.653Z,0.00
2018-02-08T05:50:38.691Z,0.00
2018-02-08T05:51:38.585Z,0.00
2018-02-08T05:52:38.604Z,0.00
2018-02-08T05:53:38.516Z,0.00
2018-02-08T05:54:38.512Z,0.00
2018-02-08T05:55:38.446Z,0.00
2018-02-08T05:56:38.423Z,0.00
2018-02-08T05:57:38.375Z,0.00
2018-02-08T05:58:38.436Z,0.00
2018-02-08T05:59:38.306Z,0.00
2018-02-08T06:00:38.343Z,0.00
2018-02-08T06:01:38.238Z,0.00
2018-02-08T06:02:38.255Z,0.00
2018-02-08T06:03:38.171Z,0.00
2018-02-08T06:04:38.167Z,0.00
2018-02-08T06:05:38.099Z,0.00
2018-02-08T06:06:38.178Z,0.00
2018-02-08T06:07:38.032Z,0.00
2018-02-08T06:08:38.089Z,0.00
2018-02-08T06:09:37.962Z,0.00
2018-02-08T06:10:38.002Z,0.00
2018-02-08T06:11:37.894Z,0.00
2018-02-08T06:12:37.910Z,0.00
2018-02-08T06:13:37.824Z,0.00
2018-02-08T06:14:37.820Z,0.00
2018-02-08T06:15:37.757Z,0.00
2018-02-08T06:16:37.833Z,0.00
2018-02-08T06:17:37.685Z,0.00
2018-02-08T06:18:37.745Z,0.00
2018-02-08T06:19:37.618Z,0.00
2018-02-08T06:20:37.653Z,0.00
2018-02-08T06:21:37.551Z,0.00
2018-02-08T06:22:37.563Z,0.00
2018-02-08T06:23:37.480Z,0.00
2018-02-08T06:24:37.474Z,0.00
2018-02-08T06:25:37.409Z,0.00
2018-02-08T06:26:37.483Z,0.00
2018-02-08T06:27:37.340Z,0.00
2018-02-08T06:28:37.397Z,0.00
2018-02-08T06:29:37.272Z,0.00
2018-02-08T06:30:37.324Z,0.00
2018-02-08T06:31:37.206Z,0.00
2018-02-08T06:32:37.217Z,0.00
2018-02-08T06:33:37.129Z,0.00
2018-02-08T06:34:37.124Z,0.00
2018-02-08T06:35:37.062Z,0.00
2018-02-08T06:36:37.144Z,0.00
2018-02-08T06:37:36.996Z,0.00
2018-02-08T06:38:37.046Z,0.00
2018-02-08T06:39:36.922Z,0.00
2018-02-08T06:40:36.957Z,0.00
2018-02-08T06:41:36.857Z,0.00
2018-02-08T06:42:36.865Z,0.00
2018-02-08T06:43:36.787Z,0.00
2018-02-08T06:44:36.779Z,0.00
2018-02-08T06:45:36.707Z,0.00
2018-02-08T06:46:36.792Z,0.00
2018-02-08T06:47:36.642Z,0.00
2018-02-08T06:48:36.701Z,0.00
2018-02-08T06:49:36.577Z,0.00
2018-02-08T06:50:36.636Z,0.00
2018-02-08T06:51:36.505Z,0.00
2018-02-08T06:52:36.551Z,0.00
2018-02-08T06:53:36.439Z,0.00
2018-02-08T06:54:36.430Z,0.00
2018-02-08T06:55:36.376Z,0.00
2018-02-08T06:56:36.450Z,0.00
2018-02-08T06:57:36.303Z,0.00
2018-02-08T06:58:36.356Z,0.00
2018-02-08T06:59:36.227Z,0.00
2018-02-08T07:00:36.263Z,5.63
2018-02-08T07:01:36.158Z,5.63
2018-02-08T07:02:36.230Z,5.63
2018-02-08T07:03:36.100Z,5.63
2018-02-08T07:04:36.083Z,5.63
2018-02-08T07:05:36.020Z,5.63
2018-02-08T07:06:36.099Z,5.63
2018-02-08T07:07:35.951Z,5.63
2018-02-08T07:08:36.008Z,5.63
2018-02-08T07:09:35.876Z,5.63
2018-02-08T07:10:35.916Z,11.25
2018-02-08T07:11:35.817Z,11.25
2018-02-08T07:12:35.826Z,11.25
2018-02-08T07:13:35.747Z,11.25
2018-02-08T07:14:35.736Z,11.25
2018-02-08T07:15:35.676Z,11.25
2018-02-08T07:16:35.748Z,16.88
2018-02-08T07:17:35.602Z,16.88
2018-02-08T07:18:35.659Z,16.88
2018-02-08T07:19:35.536Z,16.88
2018-02-08T07:20:35.568Z,16.88
2018-02-08T07:21:35.465Z,22.50
2018-02-08T07:22:35.479Z,22.50
2018-02-08T07:23:35.402Z,22.50
2018-02-08T07:24:35.387Z,22.50
2018-02-08T07:25:35.326Z,22.50
2018-02-08T07:26:35.400Z,22.50
2018-02-08T07:27:35.258Z,28.13
2018-02-08T07:28:35.312Z,28.13
2018-02-08T07:29:35.191Z,28.13
2018-02-08T07:30:35.221Z,28.13
2018-02-08T07:31:35.121Z,33.75
2018-02-08T07:32:35.132Z,33.75
2018-02-08T07:33:35.049Z,33.75
2018-02-08T07:34:35.041Z,33.75
2018-02-08T07:35:35.018Z,39.38
2018-02-08T07:36:35.054Z,39.38
2018-02-08T07:37:34.952Z,39.38
2018-02-08T07:38:34.965Z,39.38
2018-02-08T07:39:34.842Z,45.00
2018-02-08T07:40:34.873Z,45.00
2018-02-08T07:41:34.767Z,45.00
2018-02-08T07:42:34.784Z,45.00
2018-02-08T07:43:34.706Z,50.63
2018-02-08T07:44:34.694Z,50.63
2018-02-08T07:45:34.642Z,50.63
2018-02-08T07:46:34.707Z,50.63
2018-02-08T07:47:34.571Z,50.63
2018-02-08T07:48:34.619Z,50.63
2018-02-08T07:49:34.500Z,50.63
2018-02-08T07:50:34.527Z,50.63
2018-02-08T07:51:34.431Z,50.63
2018-02-08T07:52:34.438Z,50.63
2018-02-08T07:53:34.364Z,56.25
2018-02-08T07:54:34.347Z,56.25
2018-02-08T07:55:34.294Z,56.25
2018-02-08T07:56:34.361Z,56.25
2018-02-08T07:57:34.229Z,56.25
2018-02-08T07:58:34.272Z,56.25
2018-02-08T07:59:34.159Z,61.88
2018-02-08T08:00:34.183Z,61.88
2018-02-08T08:01:34.087Z,61.88
2018-02-08T08:02:34.090Z,61.88
2018-02-08T08:03:34.023Z,61.88
2018-02-08T08:04:34.104Z,61.88
2018-02-08T08:05:33.953Z,61.88
2018-02-08T08:06:34.012Z,61.88
2018-02-08T08:07:33.885Z,67.50
2018-02-08T08:08:33.925Z,67.50
2018-02-08T08:09:33.819Z,67.50
2018-02-08T08:10:33.835Z,67.50
2018-02-08T08:11:33.748Z,73.13
2018-02-08T08:12:33.744Z,73.13
2018-02-08T08:13:33.686Z,73.13
2018-02-08T08:14:33.757Z,73.13
2018-02-08T08:15:33.613Z,73.13
2018-02-08T08:16:33.665Z,78.75
2018-02-08T08:17:33.546Z,78.75
2018-02-08T08:18:33.576Z,84.38
2018-02-08T08:19:33.480Z,84.38
2018-02-08T08:20:33.493Z,90.00
2018-02-08T08:21:33.408Z,84.38
2018-02-08T08:22:33.397Z,78.75
2018-02-08T08:23:33.342Z,73.13
2018-02-08T08:24:33.409Z,73.13
2018-02-08T08:25:33.276Z,73.13
2018-02-08T08:26:33.320Z,78.75
2018-02-08T08:27:33.205Z,78.75
2018-02-08T08:28:33.234Z,78.75
2018-02-08T08:29:33.138Z,78.75
2018-02-08T08:30:33.139Z,78.75
2018-02-08T08:31:33.068Z,73.13
2018-02-08T08:32:33.049Z,84.38
2018-02-08T08:33:33.004Z,73.13
2018-02-08T08:34:33.062Z,73.13
2018-02-08T08:35:32.937Z,73.13
2018-02-08T08:36:32.975Z,73.13
2018-02-08T08:37:32.869Z,73.13
2018-02-08T08:38:32.884Z,73.13
2018-02-08T08:39:32.802Z,73.13
2018-02-08T08:40:32.794Z,73.13
2018-02-08T08:41:32.730Z,73.13
2018-02-08T08:42:32.806Z,73.13
2018-02-08T08:43:32.665Z,73.13
2018-02-08T08:44:32.736Z,73.13
2018-02-08T08:45:32.597Z,78.75
2018-02-08T08:46:32.627Z,84.38
2018-02-08T08:47:32.527Z,84.38
2018-02-08T08:48:32.535Z,84.38
2018-02-08T08:49:32.461Z,95.63
2018-02-08T08:50:32.448Z,101.25
2018-02-08T08:51:32.393Z,106.88
2018-02-08T08:52:32.458Z,112.50
2018-02-08T08:53:32.322Z,112.50
2018-02-08T08:54:32.367Z,101.25
2018-02-08T08:55:32.259Z,106.88
2018-02-08T08:56:32.278Z,95.63
2018-02-08T08:57:32.192Z,112.50
2018-02-08T08:58:32.190Z,112.50
2018-02-08T08:59:32.123Z,118.13
2018-02-08T09:00:32.201Z,118.13
2018-02-08T09:01:32.058Z,118.13
2018-02-08T09:02:32.111Z,123.75
2018-02-08T09:03:31.987Z,129.38
2018-02-08T09:04:32.020Z,129.38
2018-02-08T09:05:31.922Z,129.38
2018-02-08T09:06:31.930Z,129.38
2018-02-08T09:07:31.854Z,135.00
2018-02-08T09:08:31.840Z,135.00
2018-02-08T09:09:31.787Z,140.63
2018-02-08T09:10:31.853Z,146.25
2018-02-08T09:11:31.719Z,151.88
2018-02-08T09:12:31.765Z,157.50
2018-02-08T09:13:31.650Z,157.50
2018-02-08T09:14:31.673Z,157.50
2018-02-08T09:15:31.584Z,163.13
2018-02-08T09:16:31.582Z,163.13
2018-02-08T09:17:31.517Z,163.13
2018-02-08T09:18:31.596Z,168.75
2018-02-08T09:19:31.450Z,168.75
2018-02-08T09:20:31.505Z,168.75
2018-02-08T09:21:31.382Z,174.38
2018-02-08T09:22:31.353Z,174.38
2018-02-08T09:23:31.320Z,174.38
2018-02-08T09:24:31.327Z,180.00
2018-02-08T09:25:31.250Z,180.00
2018-02-08T09:26:31.236Z,185.63
2018-02-08T09:27:31.181Z,185.63
2018-02-08T09:28:31.250Z,185.63
2018-02-08T09:29:31.116Z,191.25
2018-02-08T09:30:31.157Z,202.50
2018-02-08T09:31:31.050Z,444.38
2018-02-08T09:32:31.069Z,1147.50
2018-02-08T09:33:30.988Z,1395.00
2018-02-08T09:34:30.979Z,1355.63
2018-02-08T09:35:30.921Z,1327.50
2018-02-08T09:36:31.001Z,1260.00
2018-02-08T09:37:30.859Z,1271.25
2018-02-08T09:38:30.901Z,1243.13
2018-02-08T09:39:30.823Z,1170.00
2018-02-08T09:40:30.783Z,1141.88
2018-02-08T09:41:30.747Z,1220.63
2018-02-08T09:42:30.823Z,1198.13
2018-02-08T09:43:30.694Z,1181.25
2018-02-08T09:44:30.735Z,1175.63
2018-02-08T09:45:30.640Z,1141.88
2018-02-08T09:46:30.694Z,1136.25
2018-02-08T09:47:30.592Z,1113.75
2018-02-08T09:48:30.582Z,1096.88
2018-02-08T09:49:31.025Z,1102.50
2018-02-08T09:50:30.558Z,1091.25
2018-02-08T09:51:30.499Z,1063.13
2018-02-08T09:52:30.562Z,1063.13
2018-02-08T09:53:30.456Z,1040.63
2018-02-08T09:54:30.473Z,1051.88
2018-02-08T09:55:30.415Z,1096.88
2018-02-08T09:56:30.396Z,1136.25
2018-02-08T09:57:30.392Z,1192.50
2018-02-08T09:58:30.351Z,1220.63
2018-02-08T09:59:30.403Z,1231.88
2018-02-08T10:00:30.311Z,2508.75
2018-02-08T10:01:30.316Z,4646.25
2018-02-08T10:02:30.276Z,4269.38
2018-02-08T10:03:30.330Z,3633.75
2018-02-08T10:04:30.237Z,2964.38
2018-02-08T10:05:30.240Z,3020.63
2018-02-08T10:06:30.204Z,3335.63
2018-02-08T10:07:30.256Z,3751.88
2018-02-08T10:08:30.167Z,3555.00
2018-02-08T10:09:30.165Z,3521.25
2018-02-08T10:10:30.132Z,3431.25
2018-02-08T10:11:30.181Z,3414.38
2018-02-08T10:12:30.148Z,3268.13
2018-02-08T10:13:30.195Z,3301.88
2018-02-08T10:14:30.064Z,3335.63
2018-02-08T10:15:30.105Z,3240.00
2018-02-08T10:16:30.031Z,3324.38
2018-02-08T10:17:30.120Z,3183.75
2018-02-08T10:18:30.005Z,3133.13
2018-02-08T10:19:30.032Z,3065.63
2018-02-08T10:20:29.969Z,3110.63
2018-02-08T10:21:30.046Z,3121.88
2018-02-08T10:22:29.937Z,3009.38
2018-02-08T10:23:29.958Z,2778.75
2018-02-08T10:24:29.908Z,3054.38
2018-02-08T10:25:29.970Z,2885.63
2018-02-08T10:26:29.877Z,3048.75
2018-02-08T10:27:29.883Z,3245.63
2018-02-08T10:28:29.848Z,3178.13
2018-02-08T10:29:29.897Z,3211.88
2018-02-08T10:30:29.817Z,3296.25
2018-02-08T10:31:29.810Z,3223.13
2018-02-08T10:32:29.789Z,3211.88
2018-02-08T10:33:29.822Z,3178.13
2018-02-08T10:34:29.761Z,3251.25
2018-02-08T10:35:29.836Z,3296.25
2018-02-08T10:36:29.731Z,3183.75
2018-02-08T10:37:29.750Z,2958.75
2018-02-08T10:38:29.735Z,3054.38
2018-02-08T10:39:29.761Z,3054.38
2018-02-08T10:40:29.678Z,3121.88
2018-02-08T10:41:29.776Z,3172.50
2018-02-08T10:42:29.654Z,3065.63
2018-02-08T10:43:29.687Z,3020.63
2018-02-08T10:44:29.624Z,2992.50
2018-02-08T10:45:29.701Z,2902.50
2018-02-08T10:46:29.596Z,3076.88
2018-02-08T10:47:29.610Z,3116.25
2018-02-08T10:48:29.572Z,3099.38
2018-02-08T10:49:29.626Z,2722.50
2018-02-08T10:50:29.543Z,2812.50
2018-02-08T10:51:29.636Z,2891.25
2018-02-08T10:52:29.519Z,2975.63
2018-02-08T10:53:29.547Z,2857.50
2018-02-08T10:54:29.493Z,3110.63
2018-02-08T10:55:29.562Z,3189.38
2018-02-08T10:56:29.472Z,3211.88
2018-02-08T10:57:29.474Z,3240.00
2018-02-08T10:58:29.441Z,3268.13
2018-02-08T10:59:29.492Z,3240.00
2018-02-08T11:00:29.416Z,3183.75
2018-02-08T11:01:29.502Z,3076.88
2018-02-08T11:02:29.391Z,3099.38
2018-02-08T11:03:29.413Z,2880.00
2018-02-08T11:04:29.369Z,2750.63
2018-02-08T11:05:29.428Z,2700.00
2018-02-08T11:06:29.351Z,2216.25
2018-02-08T11:07:29.441Z,2351.25
2018-02-08T11:08:29.324Z,2401.88
2018-02-08T11:09:29.353Z,2896.88
2018-02-08T11:10:29.292Z,2756.25
2018-02-08T11:11:29.366Z,2930.63
2018-02-08T11:12:29.275Z,2947.50
2018-02-08T11:13:29.278Z,2964.38
2018-02-08T11:14:29.253Z,2818.13
2018-02-08T11:15:29.290Z,2778.75
2018-02-08T11:16:29.226Z,2790.00
2018-02-08T11:17:29.307Z,2790.00
2018-02-08T11:18:29.208Z,2705.63
2018-02-08T11:19:29.216Z,2722.50
2018-02-08T11:20:29.181Z,2728.13
2018-02-08T11:21:29.237Z,2688.75
2018-02-08T11:22:29.159Z,2615.63
2018-02-08T11:23:29.245Z,2520.00
2018-02-08T11:24:29.133Z,2525.63
2018-02-08T11:25:29.158Z,2531.25
2018-02-08T11:26:29.109Z,2475.00
2018-02-08T11:27:29.171Z,2458.13
2018-02-08T11:28:29.084Z,2520.00
2018-02-08T11:29:29.185Z,2503.13
2018-02-08T11:30:29.063Z,2559.38
2018-02-08T11:31:29.096Z,2576.25
2018-02-08T11:32:29.038Z,2610.00
2018-02-08T11:33:29.110Z,2553.75
2018-02-08T11:34:29.021Z,2565.00
2018-02-08T11:35:29.021Z,2593.13
2018-02-08T11:36:28.993Z,2666.25
2018-02-08T11:37:29.035Z,2728.13
2018-02-08T11:38:28.970Z,2705.63
2018-02-08T11:39:29.048Z,2643.75
2018-02-08T11:40:28.948Z,2559.38
2018-02-08T11:41:30.010Z,2458.13
2018-02-08T11:42:28.931Z,2491.88
2018-02-08T11:43:28.974Z,2610.00
2018-02-08T11:44:28.903Z,2643.75
2018-02-08T11:45:28.986Z,2559.38
2018-02-08T11:46:28.879Z,2446.88
2018-02-08T11:47:28.900Z,2390.63
2018-02-08T11:48:28.857Z,2469.38
2018-02-08T11:49:28.915Z,2514.38
2018-02-08T11:50:28.835Z,2272.50
2018-02-08T11:51:28.928Z,2030.63
2018-02-08T11:52:28.811Z,1569.38
2018-02-08T11:53:28.838Z,1760.63
2018-02-08T11:54:28.788Z,1794.38
2018-02-08T11:55:28.799Z,2002.50
2018-02-08T11:56:28.860Z,1721.25
2018-02-08T11:57:28.755Z,1743.75
2018-02-08T11:58:28.876Z,1507.50
2018-02-08T11:59:28.727Z,1676.25
2018-02-08T12:00:28.718Z,1434.38
2018-02-08T12:01:28.791Z,1861.88
2018-02-08T12:02:28.691Z,1051.88
2018-02-08T12:03:28.682Z,1271.25
2018-02-08T12:04:28.664Z,1243.13
2018-02-08T12:05:28.655Z,1451.25
2018-02-08T12:06:28.753Z,1012.50
2018-02-08T12:07:28.624Z,1338.75
2018-02-08T12:08:28.614Z,1051.88
2018-02-08T12:09:28.594Z,1113.75
2018-02-08T12:10:28.577Z,1575.00
2018-02-08T12:11:28.561Z,1558.13
2018-02-08T12:12:28.587Z,1586.25
2018-02-08T12:13:28.530Z,1715.63
2018-02-08T12:14:28.603Z,1541.25
2018-02-08T12:15:28.500Z,1310.63
2018-02-08T12:16:28.508Z,1164.38
2018-02-08T12:17:28.472Z,1186.88
2018-02-08T12:18:28.522Z,1029.38
2018-02-08T12:19:28.437Z,995.63
2018-02-08T12:20:28.534Z,990.00
2018-02-08T12:21:28.406Z,1006.88
2018-02-08T12:22:28.466Z,1023.75
2018-02-08T12:23:28.374Z,990.00
2018-02-08T12:24:28.449Z,967.50
2018-02-08T12:25:28.345Z,1001.25
2018-02-08T12:26:28.350Z,1006.88
2018-02-08T12:27:28.309Z,1051.88
2018-02-08T12:28:28.365Z,1147.50
2018-02-08T12:29:28.280Z,1400.63
2018-02-08T12:30:28.276Z,1693.13
2018-02-08T12:31:28.248Z,1766.25
2018-02-08T12:32:28.290Z,1546.88
2018-02-08T12:33:28.219Z,1130.63
2018-02-08T12:34:28.307Z,967.50
2018-02-08T12:35:28.187Z,950.63
2018-02-08T12:36:28.171Z,928.13
2018-02-08T12:37:28.156Z,922.50
2018-02-08T12:38:28.230Z,939.38
2018-02-08T12:39:28.132Z,956.25
2018-02-08T12:40:28.141Z,961.88
2018-02-08T12:41:28.098Z,967.50
2018-02-08T12:42:28.156Z,961.88
2018-02-08T12:43:28.070Z,961.88
2018-02-08T12:44:28.068Z,945.00
2018-02-08T12:45:28.041Z,939.38
2018-02-08T12:46:28.087Z,928.13
2018-02-08T12:47:28.008Z,928.13
2018-02-08T12:48:28.092Z,928.13
2018-02-08T12:49:27.981Z,922.50
2018-02-08T12:50:28.005Z,933.75
2018-02-08T12:51:27.953Z,928.13
2018-02-08T12:52:28.017Z,1023.75